Duluth International Airport Duluth US
ICAO: KDLH
IATA: DLH
Category: Large
Scheduled Services: Yes

Elevation: 1428 ft
TransAlt. 18000 ft.

Airport Communications:
APP/DEP:125.45
ATIS:124.1
GND:121.9
ANG COMD POST:28.89
PTD:28.89
PRINCETON RDO:122.35
TWR:118.3
UNICOM:122.95

KDLH Zoom In..

Runways:

(A) RW 03 length 5719 ft width 150 ft
---- / hdg 30

(B) RW 09 length 10162 ft width 150 ft
ILS 110.30 / hdg 90

(C) RW 21 length 5719 ft width 150 ft
---- / hdg 210

(D) RW 27 length 10162 ft width 150 ft
ILS 108.70 / hdg 270

Location; KDLH
Day. 22 / Time. 00.55 Zulu
* Altimeter: 30.32
* Temperature: 11° c. 51.8°f.
* Wind from: 120° Speed 04 kn.
Dewpoint: -06° c.
Visibility: 10 Statute Miles.
Clouds: Clear (automated report).

KDLH 220055Z 12004KT 10SM CLR 11/M06 A3032 RMK AO2 SLP278 T01061061


Wind From 120°
Speed 04 kn.

  YouTube Music Video
 
jpsmedia.com for Web Design  worldairports.se 2018   terms of use